Latest Coastal Weather Observations for Eucla

IDW60701

Issued at 11:45 am WST Friday 1 August 2014 (issued every 10 minutes, with the page automatically refreshed every 10 minutes)

About coastal observations | Map of coastal stations | Coastal observations for WA | Marine services | Other Formats
Station Details ID: 011003 Name: EUCLA Lat: -31.68 Lon: 128.90 Height: 93.1 m
Data from the previous 72 hours. | See also: Recent months at Eucla
Date/Time
WST
Temp

°C
Wind Pressure Rain
since 9am
mm
Weather Cloud Vis
km
Sea
Height
m
Swell
Dir
 
Speed
knots
Gust
knots
hPa Trend Height
m
Period
s
Dir
01/11:30am 14.3 S 9 13 1028.5 - 0.0 - - - - - - -
01/11:00am 13.8 S 7 13 1028.7 - 0.0 - - - - - - -
01/10:30am 13.9 SSW 5 8 1028.7 - 0.0 - - - - - - -
01/10:00am 13.6 S 8 13 1029.0 - 0.0 - - - - - - -
01/09:30am 13.3 S 9 15 1028.8 - 0.0 - - - - - - -
01/09:00am 12.8 S 9 14 1028.5 - 0.6 Fine Partly cloudy 40 - - - -
01/08:30am 12.5 S 9 14 1028.0 - 0.6 - - - - - - -
01/08:00am 12.1 SSW 5 8 1027.6 - 0.6 - - - - - - -
01/07:30am 10.9 SSE 6 9 1027.2 - 0.6 - - - - - - -
01/07:00am 10.3 W 2 5 1026.9 - 0.6 - - - - - - -
01/06:30am 10.7 S 7 10 1026.5 - 0.6 - - - - - - -
01/06:00am 10.4 SW 4 7 1026.1 - 0.6 - - - - - - -
01/05:30am 9.6 SSW 7 10 1025.6 - 0.6 - - - - - - -
01/05:00am 9.8 SSW 8 14 1025.5 - 0.6 - - - - - - -
01/04:30am 10.3 SSW 8 14 1025.2 - 0.6 - - - - - - -
01/04:00am 9.0 SW 5 8 1025.1 - 0.6 - - - - - - -
01/03:30am 9.5 SW 8 15 1025.1 - 0.6 - - - - - - -
01/03:00am 9.6 W 6 10 1024.9 - 0.6 - - - - - - -
01/02:30am 9.9 S 13 22 1024.7 - 0.6 - - - - - - -
01/02:00am 9.4 SSW 6 10 1024.6 - 0.6 - - - - - - -
01/01:30am 9.5 WSW 8 13 1024.7 - 0.6 - - - - - - -
01/01:00am 9.5 SW 10 17 1024.5 - 0.6 - - - - - - -
01/12:30am 9.1 WSW 6 8 1024.6 - 0.6 - - - - - - -
01/12:00am 9.4 WSW 9 14 1024.5 - 0.2 - - - - - - -
 
Date/Time
WST
Temp

°C
Wind Pressure Rain
since 9am
mm
Weather Cloud Vis
km
Sea
Height
m
Swell
Dir
 
Speed
knots
Gust
knots
hPa Trend Height
m
Period
s
Dir
31/11:30pm 9.7 S 5 7 1024.4 - 0.2 - - - - - - -
31/11:00pm 10.3 WSW 8 13 1024.4 - 0.2 - - - - - - -
31/10:30pm 11.4 SW 11 18 1024.5 - 0.2 - - - - - - -
31/10:00pm 11.0 SSW 11 17 1024.3 - 0.2 - - - - - - -
31/09:30pm 11.0 SW 12 18 1024.4 - 0.2 - - - - - - -
31/09:00pm 12.1 SW 13 21 1024.2 - 0.2 - - - - - - -
31/08:30pm 11.7 SW 9 15 1023.9 - 0.2 - - - - - - -
31/08:00pm 11.7 SW 10 18 1023.7 - 0.2 - - - - - - -
31/07:30pm 11.6 SW 13 22 1023.5 - 0.2 - - - - - - -
31/07:00pm 12.1 SW 11 18 1023.0 - 0.2 - - - - - - -
31/06:30pm 12.0 SW 11 20 1022.8 - 0.2 - - - - - - -
31/06:00pm 11.3 SW 7 12 1022.5 - 0.2 - - - - - - -
31/05:30pm 11.8 WSW 10 16 1022.3 - 0.2 - - - - - - -
31/05:00pm 11.5 SW 10 16 1021.8 - 0.2 - - - - - - -
31/04:30pm 12.0 SW 12 20 1021.4 - 0.2 - - - - - - -
31/04:00pm 12.4 SW 12 20 1021.1 - 0.2 - - - - - - -
31/03:30pm 12.7 SW 14 22 1020.8 - 0.2 - - - - - - -
31/03:00pm 12.3 SW 14 22 1020.5 - 0.2 Distant precip. Mostly cloudy 5 - - - -
31/02:35pm 12.6 SW 16 27 1020.3 - 0.2 - - - - - - -
31/02:30pm 12.9 SW 14 23 1020.2 - 0.2 - - - - - - -
31/02:13pm 13.5 SW 15 25 1019.9 - 0.2 - - - - - - -
31/02:00pm 13.3 SW 15 22 1019.8 - 0.2 - - - - - - -
31/01:40pm 13.7 SW 15 25 1019.5 - 0.2 - - - - - - -
31/01:30pm 13.7 SW 15 23 1019.5 - 0.2 - - - - - - -
31/01:00pm 14.4 SW 15 25 1019.2 - 0.2 - - - - - - -
31/12:30pm 13.7 SW 17 27 1018.9 - 0.2 - - - - - - -
31/12:06pm 13.6 SW 15 25 1018.8 - 0.2 - - - - - - -
31/12:00pm 13.5 SW 13 21 1018.9 - 0.2 Recent precip. - - - - - -
31/11:30am 13.5 WSW 11 18 1018.8 - 0.2 - - - - - - -
31/11:00am 13.4 SW 17 28 1018.9 - 0.0 - - - - - - -
31/10:43am 14.8 SW 15 29 1018.5 - 0.0 - - - - - - -
31/10:30am 14.8 WSW 13 22 1018.5 - 0.0 - - - - - - -
31/10:00am 13.7 WSW 13 18 1018.7 - 0.0 - - - - - - -
31/09:30am 12.4 W 10 16 1018.5 - 0.0 - - - - - - -
31/09:00am 12.2 WSW 10 17 1018.2 - 0.0 Drizzle Cloudy 2 - - - -
31/08:30am 13.4 WSW 16 23 1017.5 - 0.0 - - - - - - -
31/08:00am 13.5 W 13 21 1017.0 - 0.0 - - - - - - -
31/07:30am 13.2 W 12 21 1016.2 - 0.0 - - - - - - -
31/07:00am 11.5 W 12 20 1015.9 - 0.0 - - - - - - -
31/06:30am 10.9 WNW 11 17 1015.5 - 0.0 - - - - - - -
31/06:00am 11.1 WNW 11 17 1015.0 - 0.0 - - - - - - -
31/05:30am 11.1 WNW 9 14 1014.6 - 0.0 - - - - - - -
31/05:00am 11.7 WNW 9 14 1014.5 - 0.0 - - - - - - -
31/04:30am 12.3 W 11 18 1014.2 - 0.0 - - - - - - -
31/04:00am 11.0 WNW 9 15 1013.9 - 0.0 - - - - - - -
31/03:30am 12.1 WNW 8 12 1013.9 - 0.0 - - - - - - -
31/03:00am 11.4 WNW 10 15 1014.1 - 0.0 - - - - - - -
31/02:30am 11.2 WNW 10 15 1013.9 - 0.0 - - - - - - -
31/02:00am 11.4 NW 10 17 1014.2 - 0.0 - - - - - - -
31/01:30am 11.0 NW 9 13 1014.1 - 0.0 - - - - - - -
31/01:00am 10.6 NW 9 13 1014.3 - 0.0 - - - - - - -
31/12:30am 11.1 NW 9 14 1014.5 - 0.0 - - - - - - -
31/12:00am 10.8 NW 9 12 1014.7 - 0.0 - - - - - - -
 
Date/Time
WST
Temp

°C
Wind Pressure Rain
since 9am
mm
Weather Cloud Vis
km
Sea
Height
m
Swell
Dir
 
Speed
knots
Gust
knots
hPa Trend Height
m
Period
s
Dir
30/11:30pm 10.2 NNW 9 11 1014.8 - 0.0 - - - - - - -
30/11:00pm 9.3 NNW 8 9 1014.9 - 0.0 - - - - - - -
30/10:30pm 8.9 NNW 8 9 1015.0 - 0.0 - - - - - - -
30/10:00pm 8.9 NNW 8 9 1015.2 - 0.0 - - - - - - -
30/09:30pm 9.1 NNW 7 9 1015.5 - 0.0 - - - - - - -
30/09:00pm 10.2 N 6 7 1015.8 - 0.0 - - - - - - -
30/08:30pm 11.4 WNW 6 7 1016.1 - 0.0 - - - - - - -
30/08:00pm 10.4 WSW 3 4 1016.5 - 0.0 - - - - - - -
30/07:30pm 12.3 SW 4 7 1016.6 - 0.0 - - - - - - -
30/07:00pm 11.2 WNW 4 5 1016.6 - 0.0 - - - - - - -
30/06:30pm 11.8 SW 4 4 1016.4 - 0.0 - - - - - - -
30/06:00pm 13.7 S 5 5 1016.5 - 0.0 - - - - - - -
30/05:30pm 16.5 WNW 6 9 1016.2 - 0.0 - - - - - - -
30/05:00pm 18.3 WNW 7 11 1015.9 - 0.0 - - - - - - -
30/04:30pm 19.6 W 9 14 1015.9 - 0.0 - - - - - - -
30/04:00pm 20.7 WNW 11 17 1015.7 - 0.0 - - - - - - -
30/03:30pm 21.4 WNW 12 17 1015.6 - 0.0 - - - - - - -
30/03:00pm 21.9 WNW 12 18 1015.7 - 0.0 Fine Clear 40 - - - -
30/02:30pm 22.2 NW 15 22 1015.7 - 0.0 - - - - - - -
30/02:00pm 22.0 WNW 13 23 1016.1 - 0.0 - - - - - - -
30/01:30pm 22.1 WNW 13 21 1016.6 - 0.0 - - - - - - -
30/01:00pm 21.7 WNW 13 21 1017.0 - 0.0 - - - - - - -
30/12:30pm 22.3 WNW 15 26 1017.3 - 0.0 - - - - - - -
30/12:00pm 21.4 WNW 15 21 1018.1 - 0.0 - - - - - - -
30/11:30am 21.3 WNW 13 19 1018.6 - 0.0 - - - - - - -
30/11:00am 21.0 WNW 12 20 1019.3 - 0.0 - - - - - - -
30/10:30am 20.3 WNW 11 16 1020.0 - 0.0 - - - - - - -
30/10:00am 19.5 NW 11 16 1020.4 - 0.0 - - - - - - -
30/09:30am 18.1 NW 11 15 1020.6 - 0.0 - - - - - - -
30/09:00am 16.1 NNW 10 14 1020.9 - 0.0 Fine Clear 40 - - - -
30/08:30am 14.0 NNW 9 13 1020.9 - 0.0 - - - - - - -
30/08:00am 12.2 NNW 9 13 1020.9 - 0.0 - - - - - - -
30/07:30am 10.6 NNW 9 13 1020.9 - 0.0 - - - - - - -
30/07:00am 9.4 NNW 10 14 1020.9 - 0.0 - - - - - - -
30/06:30am 7.1 N 8 10 1020.8 - 0.0 - - - - - - -
30/06:00am 6.5 N 8 10 1020.6 - 0.0 - - - - - - -
30/05:30am 6.6 N 8 10 1020.6 - 0.0 - - - - - - -
30/05:00am 6.9 N 8 9 1020.5 - 0.0 - - - - - - -
30/04:30am 7.0 N 9 11 1020.5 - 0.0 - - - - - - -
30/04:00am 7.0 NNW 9 10 1020.6 - 0.0 - - - - - - -
30/03:30am 6.9 N 9 10 1020.6 - 0.0 - - - - - - -
30/03:00am 6.4 N 8 9 1020.8 - 0.0 - - - - - - -
30/02:30am 6.6 N 7 9 1020.8 - 0.0 - - - - - - -
30/02:00am 7.1 N 8 10 1020.9 - 0.0 - - - - - - -
30/01:30am 7.4 N 7 9 1021.1 - 0.0 - - - - - - -
30/01:00am 7.0 N 6 7 1021.4 - 0.0 - - - - - - -
30/12:30am 7.1 N 6 7 1021.8 - 0.0 - - - - - - -
30/12:00am 7.3 N 5 6 1021.8 - 0.0 - - - - - - -
 
Date/Time
WST
Temp

°C
Wind Pressure Rain
since 9am
mm
Weather Cloud Vis
km
Sea
Height
m
Swell
Dir
 
Speed
knots
Gust
knots
hPa Trend Height
m
Period
s
Dir
29/11:30pm 7.4 N 6 6 1022.0 - 0.0 - - - - - - -
29/11:00pm 7.5 N 5 5 1022.3 - 0.0 - - - - - - -
29/10:30pm 8.2 N 6 6 1022.5 - 0.0 - - - - - - -
29/10:00pm 8.1 N 5 6 1022.6 - 0.0 - - - - - - -
29/09:30pm 8.1 N 5 6 1022.7 - 0.0 - - - - - - -
29/09:00pm 8.4 CALM 0 5 1022.8 - 0.0 - - - - - - -
29/08:30pm 8.4 CALM 0 0 1022.7 - 0.0 - - - - - - -
29/08:00pm 7.8 WSW 3 3 1022.7 - 0.0 - - - - - - -
29/07:30pm 11.2 SW 5 5 1022.7 - 0.0 - - - - - - -
29/07:00pm 11.7 SW 5 5 1022.5 - 0.0 - - - - - - -
29/06:30pm 12.0 SW 5 6 1022.2 - 0.0 - - - - - - -
29/06:00pm 12.3 SW 5 6 1022.0 - 0.0 - - - - - - -
29/05:30pm 12.6 SSW 5 6 1021.6 - 0.0 - - - - - - -
29/05:00pm 13.6 SSE 4 4 1021.1 - 0.0 - - - - - - -
29/04:30pm 16.2 S 4 7 1021.0 - 0.0 - - - - - - -
29/04:00pm 17.9 W 2 4 1021.0 - 0.0 - - - - - - -
29/03:30pm 17.6 S 7 9 1021.0 - 0.0 - - - - - - -
29/03:00pm 18.1 S 7 10 1020.8 - 0.0 Fine Mostly clear 40 - - - -
29/02:30pm 21.0 W 10 17 1020.7 - 0.0 - - - - - - -
29/02:00pm 21.2 W 11 17 1020.6 - 0.0 - - - - - - -
29/01:30pm 21.1 W 12 18 1020.6 - 0.0 - - - - - - -
29/01:00pm 20.8 W 11 18 1020.7 - 0.0 - - - - - - -
29/12:30pm 21.1 W 13 19 1020.9 - 0.0 - - - - - - -
29/12:00pm 20.4 W 12 20 1021.3 - 0.0 - - - - - - -

Other Formats:

Comma delimited format used in spreadsheet applications
http://www.bom.gov.au/fwo/IDW60701/IDW60701.94647.axf

JavaScript Object Notation format (JSON) in row-major order
http://www.bom.gov.au/fwo/IDW60701/IDW60701.94647.json